Latest Weather Observations for Mount Crawford

IDS60801

Issued at 12:02 pm CDT Saturday 28 March 2015 (issued every 30 minutes, with the page automatically refreshed every 10 minutes)

About weather observations | Map of weather stations | Latest weather observations for SA | Other Formats
Station Details ID: 023878 Name: MT CRAWFORD AWS Lat: -34.73 Lon: 138.93 Height: 525.0 m
Data from the previous 72 hours. | See also: Recent months at Mount Crawford
Date/Time
CDT
Temp
°C
App
Temp
°C
Dew
Point
Rel
Hum
%
Delta-T
°C
Wind Press
QNH
hPa
Press
MSL
hPa
Rain
since 9 am
mm
Dir
 
Spd
km/h
Gust
km/h
Spd
kts
Gust
kts
28/12:00pm 16.8 13.1 8.0 56 4.6 NNW 17 24 9 13 1024.5 1023.0 0.0
28/11:30am 15.6 11.8 7.6 59 4.1 NNE 17 24 9 13 1024.8 1023.3 0.0
28/11:00am 15.0 11.2 8.9 67 3.2 NNE 19 26 10 14 1025.0 1023.5 0.0
28/10:30am 13.7 9.4 9.2 74 2.3 NE 22 28 12 15 1025.5 1023.9 0.0
28/10:00am 11.9 8.3 11.9 100 0.0 NE 22 30 12 16 1025.6 1024.1 0.0
28/09:30am 9.9 6.3 9.9 100 0.0 ENE 19 24 10 13 1025.5 1023.9 0.0
28/09:00am 8.9 5.1 8.9 100 0.0 ENE 19 26 10 14 1025.5 1023.9 0.2
28/08:30am 8.3 4.7 8.3 100 0.0 E 17 20 9 11 1025.3 1023.7 0.2
28/08:00am 8.0 4.3 8.0 100 0.0 E 17 20 9 11 1025.2 1023.6 0.2
28/07:30am 7.5 3.7 7.5 100 0.0 E 17 20 9 11 1024.8 1023.3 0.2
28/07:00am 7.2 3.3 7.2 100 0.0 E 17 19 9 10 1024.9 1023.4 0.2
28/06:30am 7.4 3.6 7.4 100 0.0 E 17 19 9 10 1024.9 1023.4 0.2
28/06:00am 7.2 3.3 7.1 99 0.0 ESE 17 19 9 10 1024.7 1023.2 0.2
28/05:30am 7.3 3.8 7.2 99 0.0 ESE 15 17 8 9 1025.0 1023.5 0.2
28/05:00am 7.3 3.4 7.2 99 0.0 ESE 17 20 9 11 1024.7 1023.2 0.2
28/04:30am 7.5 3.7 7.4 99 0.0 ESE 17 20 9 11 1024.9 1023.4 0.0
28/04:00am 7.7 4.7 7.6 99 0.0 ESE 13 17 7 9 1024.9 1023.4 0.0
28/03:30am 8.0 4.3 7.9 99 0.0 E 17 20 9 11 1024.8 1023.3 0.0
28/03:00am 8.2 4.2 8.1 99 0.0 ESE 19 22 10 12 1025.0 1023.5 0.0
28/02:30am 8.4 4.4 8.3 99 0.0 ESE 19 20 10 11 1025.3 1023.7 0.0
28/02:00am 8.6 4.7 8.5 99 0.0 ESE 19 22 10 12 1025.9 1024.4 0.0
28/01:30am 8.7 4.6 8.6 99 0.0 ESE 20 28 11 15 1026.0 1024.5 0.0
28/01:00am 8.6 5.0 8.5 99 0.0 ESE 17 24 9 13 1025.9 1024.4 0.0
28/12:30am 9.1 5.1 9.0 99 0.1 SE 20 26 11 14 1025.9 1024.4 0.0
28/12:00am 9.2 5.7 8.7 97 0.2 SE 17 20 9 11 1026.3 1024.8 0.0
 
Date/Time
CDT
Temp
°C
App
Temp
°C
Dew
Point
Rel
Hum
%
Delta-T
°C
Wind Press
QNH
hPa
Press
MSL
hPa
Rain
since 9 am
mm
Dir
 
Spd
km/h
Gust
km/h
Spd
kts
Gust
kts
27/11:30pm 9.4 5.9 8.8 96 0.3 SE 17 19 9 10 1026.4 1024.9 0.0
27/11:00pm 9.5 6.3 8.3 92 0.6 SE 15 19 8 10 1026.7 1025.2 0.0
27/10:30pm 10.0 7.5 8.1 88 0.9 SSE 11 17 6 9 1026.9 1025.4 0.0
27/10:00pm 10.8 7.9 8.2 84 1.3 SSE 13 17 7 9 1026.9 1025.4 0.0
27/09:30pm 11.3 8.9 8.7 84 1.3 SSE 11 17 6 9 1026.9 1025.4 0.0
27/09:00pm 11.4 8.3 8.8 84 1.3 SSE 15 20 8 11 1026.6 1025.1 0.0
27/08:30pm 11.8 8.7 8.8 82 1.5 SSE 15 20 8 11 1026.6 1025.1 0.0
27/08:00pm 12.1 8.8 8.2 77 2.0 SE 15 24 8 13 1026.3 1024.8 0.0
27/07:30pm 12.6 9.6 7.9 73 2.4 SE 13 19 7 10 1026.2 1024.7 0.0
27/07:00pm 13.2 10.5 7.2 67 3.0 SE 11 17 6 9 1026.1 1024.6 0.0
27/06:30pm 13.4 9.9 7.2 66 3.1 SSE 15 22 8 12 1026.0 1024.5 0.0
27/06:00pm 13.8 9.9 7.1 64 3.3 SE 17 24 9 13 1025.9 1024.4 0.0
27/05:30pm 14.2 10.7 7.0 62 3.6 SE 15 24 8 13 1025.8 1024.3 0.0
27/05:00pm 15.0 11.1 7.1 59 4.0 SE 17 24 9 13 1025.7 1024.2 0.0
27/04:30pm 15.3 10.9 7.3 59 4.0 SSE 20 26 11 14 1025.7 1024.2 0.0
27/04:00pm 15.9 12.0 6.9 55 4.6 S 17 28 9 15 1025.8 1024.3 0.0
27/03:30pm 14.6 10.9 6.4 58 4.0 S 15 24 8 13 1026.0 1024.5 0.0
27/03:00pm 15.6 11.9 6.1 53 4.7 SSE 15 24 8 13 1026.1 1024.6 0.0
27/02:30pm 14.7 10.9 6.0 56 4.3 S 15 28 8 15 1026.3 1024.8 0.0
27/02:00pm 16.0 12.3 6.2 52 4.9 SW 15 26 8 14 1026.7 1025.2 0.0
27/01:30pm 14.5 11.1 6.1 57 4.1 SSE 13 22 7 12 1027.1 1025.6 0.0
27/01:00pm 14.4 10.3 6.0 57 4.1 S 17 24 9 13 1027.7 1026.2 0.0
27/12:30pm 13.5 9.8 6.4 62 3.5 S 15 24 8 13 1028.2 1026.7 0.0
27/12:00pm 13.4 10.1 6.3 62 3.5 S 13 20 7 11 1028.4 1026.9 0.0
27/11:30am 12.7 8.9 5.8 63 3.3 S 15 19 8 10 1028.7 1027.2 0.0
27/11:00am 12.5 7.8 6.1 65 3.1 SSW 20 30 11 16 1028.7 1027.2 0.0
27/10:30am 12.2 7.7 6.0 66 3.0 SSW 19 28 10 15 1028.8 1027.4 0.0
27/10:00am 11.5 6.9 5.4 66 2.9 SSW 19 26 10 14 1028.8 1027.4 0.0
27/09:30am 10.8 6.3 6.2 73 2.2 SSW 19 26 10 14 1028.7 1027.2 0.0
27/09:00am 10.6 6.8 5.6 71 2.4 SW 15 28 8 15 1028.6 1027.1 0.0
27/08:30am 10.2 8.0 6.0 75 2.0 SW 7 13 4 7 1028.4 1026.9 0.0
27/08:00am 9.9 7.2 5.7 75 2.0 SW 9 15 5 8 1028.2 1026.7 0.0
27/07:30am 9.6 6.9 5.8 77 1.8 SW 9 13 5 7 1027.8 1026.3 0.0
27/07:00am 9.4 6.7 5.8 78 1.7 SW 9 13 5 7 1027.5 1026.0 0.0
27/06:30am 9.3 7.0 5.9 79 1.6 SW 7 9 4 5 1027.1 1025.6 0.0
27/06:00am 9.4 6.4 5.8 78 1.7 SSW 11 17 6 9 1026.8 1025.3 0.0
27/05:30am 9.3 6.7 5.9 79 1.6 SW 9 13 5 7 1026.6 1025.1 0.0
27/05:00am 9.3 5.9 5.9 79 1.6 SSW 13 17 7 9 1026.4 1024.9 0.0
27/04:30am 9.1 6.5 6.2 82 1.4 WSW 9 13 5 7 1026.5 1025.0 0.0
27/04:00am 9.2 6.2 6.1 81 1.5 SW 11 17 6 9 1026.7 1025.2 0.0
27/03:30am 9.4 5.6 5.9 79 1.6 SSW 15 24 8 13 1026.7 1025.2 0.0
27/03:00am 9.1 6.5 6.2 82 1.4 SW 9 15 5 8 1026.8 1025.3 0.0
27/02:30am 9.2 5.8 6.1 81 1.5 WSW 13 20 7 11 1027.0 1025.5 0.0
27/02:00am 9.3 6.7 6.0 80 1.6 WSW 9 15 5 8 1027.3 1025.8 0.0
27/01:30am 9.1 6.4 5.8 80 1.5 SW 9 13 5 7 1027.3 1025.8 0.0
27/01:00am 9.3 5.9 5.9 79 1.6 SSW 13 19 7 10 1027.4 1025.9 0.0
27/12:30am 9.5 6.0 5.3 75 1.9 SW 13 20 7 11 1027.5 1026.0 0.0
27/12:00am 9.5 6.7 5.3 75 1.9 SW 9 17 5 9 1027.4 1025.9 0.0
 
Date/Time
CDT
Temp
°C
App
Temp
°C
Dew
Point
Rel
Hum
%
Delta-T
°C
Wind Press
QNH
hPa
Press
MSL
hPa
Rain
since 9 am
mm
Dir
 
Spd
km/h
Gust
km/h
Spd
kts
Gust
kts
26/11:30pm 9.4 5.9 5.6 77 1.8 SW 13 20 7 11 1027.5 1026.0 0.0
26/11:00pm 9.3 6.3 6.0 80 1.6 SW 11 17 6 9 1027.5 1026.0 0.0
26/10:30pm 10.1 5.8 5.3 72 2.2 SW 17 26 9 14 1027.6 1026.1 0.0
26/10:00pm 10.2 6.6 4.8 69 2.5 SW 13 19 7 10 1027.5 1026.0 0.0
26/09:30pm 10.4 6.7 4.3 66 2.8 SW 13 19 7 10 1027.5 1026.0 0.0
26/09:00pm 10.5 6.3 4.0 64 3.0 SW 15 24 8 13 1027.1 1025.6 0.0
26/08:30pm 10.1 5.9 3.8 65 2.8 SW 15 22 8 12 1026.9 1025.4 0.0
26/08:00pm 10.3 5.2 3.3 62 3.1 WSW 19 28 10 15 1026.8 1025.3 0.0
26/07:30pm 10.5 6.0 2.1 56 3.7 WSW 15 22 8 12 1026.7 1025.2 0.0
26/07:00pm 11.3 6.6 2.9 56 3.8 WSW 17 24 9 13 1026.4 1024.9 0.0
26/06:30pm 12.4 6.4 3.6 55 4.0 WSW 24 37 13 20 1026.0 1024.5 0.0
26/06:00pm 12.2 6.7 6.0 66 3.0 W 24 37 13 20 1025.6 1024.1 0.0
26/05:30pm 12.7 6.8 5.6 62 3.4 WSW 26 37 14 20 1025.2 1023.6 0.0
26/05:00pm 12.5 7.5 4.7 59 3.7 WSW 20 33 11 18 1025.4 1023.8 0.0
26/04:30pm 12.9 7.5 2.7 50 4.6 WSW 20 35 11 19 1025.0 1023.5 0.0
26/04:00pm 14.4 9.5 5.0 53 4.5 WSW 20 35 11 19 1025.2 1023.6 0.0
26/03:30pm 14.6 8.7 4.0 49 5.0 WSW 24 37 13 20 1025.2 1023.6 0.0
26/03:00pm 13.2 7.0 2.4 48 4.8 WSW 24 35 13 19 1025.2 1023.6 0.0
26/02:30pm 13.1 6.6 4.5 56 4.0 WSW 28 44 15 24 1025.4 1023.8 0.0
26/02:15pm 13.3 6.9 5.2 58 3.9 WSW 28 46 15 25 1025.3 1023.7 0.0
26/02:00pm 13.4 8.3 4.0 53 4.4 WSW 20 41 11 22 1025.5 1023.9 0.0
26/01:36pm 12.6 5.9 3.8 55 4.1 WSW 28 46 15 25 1025.5 1023.9 0.0
26/01:30pm 13.3 6.9 3.1 50 4.7 WSW 26 44 14 24 1025.6 1024.1 0.0
26/01:00pm 13.2 6.9 3.8 53 4.4 WSW 26 39 14 21 1025.5 1023.9 0.0
26/12:30pm 14.0 8.0 3.2 48 5.0 WSW 24 35 13 19 1025.4 1023.8 0.0
26/12:00pm 13.1 7.0 2.6 49 4.7 WSW 24 43 13 23 1025.6 1024.1 0.0
26/11:57am 13.1 6.3 3.2 51 4.5 WSW 28 46 15 25 1025.6 1024.1 0.0
26/11:30am 13.1 8.1 4.5 56 4.0 WSW 20 35 11 19 1025.6 1024.1 0.0
26/11:00am 11.8 5.6 4.5 61 3.4 WSW 26 37 14 20 1025.4 1023.8 0.0
26/10:30am 11.9 5.7 4.4 60 3.5 WSW 26 48 14 26 1024.9 1023.4 0.0
26/10:00am 10.1 4.3 4.3 67 2.7 WSW 24 39 13 21 1024.9 1023.4 0.0
26/09:30am 10.1 4.7 4.3 67 2.6 WSW 22 35 12 19 1024.4 1022.9 0.0
26/09:00am 9.3 4.9 4.9 74 2.0 WSW 17 28 9 15 1024.3 1022.8 0.8
26/08:30am 8.3 4.2 4.1 75 1.9 WSW 15 22 8 12 1023.8 1022.2 0.8
26/08:00am 7.6 3.1 4.2 79 1.5 WSW 17 22 9 12 1023.3 1021.7 0.8
26/07:30am 7.6 2.7 4.0 78 1.6 WSW 19 30 10 16 1022.8 1021.3 0.8
26/07:00am 7.2 2.5 3.3 76 1.7 WSW 17 28 9 15 1022.4 1020.9 0.8
26/06:30am 7.3 2.3 3.5 77 1.7 WSW 19 26 10 14 1022.2 1020.7 0.8
26/06:00am 7.5 3.3 3.6 76 1.7 WSW 15 20 8 11 1021.8 1020.2 0.8
26/05:30am 7.5 2.8 3.4 75 1.8 WSW 17 24 9 13 1021.5 1019.9 0.8
26/05:00am 7.9 3.3 3.6 74 1.9 WSW 17 28 9 15 1021.4 1019.8 0.8
26/04:30am 7.5 2.5 3.4 75 1.8 WSW 19 30 10 16 1021.3 1019.7 0.8
26/04:00am 7.9 2.8 3.2 72 2.1 WSW 19 30 10 16 1021.2 1019.6 0.8
26/03:30am 8.3 2.4 3.8 73 2.0 WSW 24 41 13 22 1020.9 1019.4 0.8
26/03:00am 8.3 2.7 3.6 72 2.1 WSW 22 35 12 19 1020.9 1019.4 0.8
26/02:30am 8.1 2.5 3.2 71 2.1 WSW 22 30 12 16 1020.9 1019.4 0.8
26/02:00am 8.4 2.4 3.5 71 2.2 WSW 24 37 13 20 1020.8 1019.3 0.8
26/01:30am 8.4 2.8 3.7 72 2.1 WSW 22 35 12 19 1020.8 1019.3 0.8
26/01:00am 8.4 3.2 3.3 70 2.3 WSW 20 35 11 19 1020.7 1019.2 0.8
26/12:30am 8.7 3.6 3.9 72 2.1 WSW 20 33 11 18 1020.6 1019.1 0.8
26/12:00am 8.5 3.5 3.8 72 2.1 WSW 19 32 10 17 1020.6 1019.1 0.8
 
Date/Time
CDT
Temp
°C
App
Temp
°C
Dew
Point
Rel
Hum
%
Delta-T
°C
Wind Press
QNH
hPa
Press
MSL
hPa
Rain
since 9 am
mm
Dir
 
Spd
km/h
Gust
km/h
Spd
kts
Gust
kts
25/11:30pm 8.4 2.4 3.5 71 2.2 WSW 24 35 13 19 1020.5 1019.0 0.8
25/11:00pm 8.6 2.8 4.2 74 2.0 WSW 24 39 13 21 1020.3 1018.7 0.8
25/10:30pm 8.7 3.3 4.3 74 2.0 WSW 22 33 12 18 1020.4 1018.8 0.8
25/10:00pm 8.8 3.1 4.8 76 1.8 WSW 24 37 13 20 1020.0 1018.4 0.8
25/09:30pm 8.5 4.9 8.4 99 0.0 WSW 17 26 9 14 1019.8 1018.2 0.8
25/09:00pm 8.2 4.5 8.1 99 0.0 WSW 17 28 9 15 1019.3 1017.7 0.8
25/08:30pm 8.1 3.8 8.0 99 0.0 WSW 20 30 11 16 1019.0 1017.5 0.8
25/08:01pm 8.5 1.1 8.4 99 0.0 WSW 37 56 20 30 1018.1 1016.5 0.8
25/08:00pm 8.6 1.2 8.5 99 0.0 WSW 37 54 20 29 1018.2 1016.6 0.8
25/07:30pm 10.1 3.9 9.9 99 0.1 WSW 33 54 18 29 1017.6 1016.0 0.8
25/07:03pm 11.5 6.2 11.3 99 0.1 W 30 59 16 32 1016.7 1015.1 0.6
25/07:00pm 11.8 7.0 11.6 99 0.1 W 28 37 15 20 1016.7 1015.1 0.6
25/06:31pm 12.2 6.0 11.4 95 0.4 W 35 57 19 31 1016.4 1014.8 0.0
25/06:30pm 12.2 5.9 11.1 93 0.6 W 35 46 19 25 1016.5 1014.9 0.0
25/06:00pm 14.8 6.6 6.6 58 4.1 WNW 39 63 21 34 1016.1 1014.5 0.0
25/05:30pm 14.8 6.8 5.6 54 4.5 W 37 57 20 31 1016.0 1014.4 0.0
25/05:00pm 15.1 6.5 4.8 50 5.0 W 39 57 21 31 1016.2 1014.6 0.0
25/04:30pm 15.5 7.7 5.1 50 5.1 WNW 35 56 19 30 1016.2 1014.6 0.0
25/04:00pm 16.1 7.9 4.5 46 5.6 W 37 59 20 32 1016.5 1014.9 0.0
25/03:36pm 15.9 8.6 4.6 47 5.5 W 32 50 17 27 1016.7 1015.1 0.0
25/03:30pm 15.3 7.0 4.1 47 5.3 W 37 52 20 28 1016.7 1015.1 0.0
25/03:05pm 15.7 8.9 3.2 43 5.9 W 28 46 15 25 1016.7 1015.1 0.0
25/03:00pm 15.5 8.4 3.3 44 5.7 W 30 43 16 23 1016.8 1015.2 0.0
25/02:30pm 15.8 7.9 4.2 46 5.5 WNW 35 54 19 29 1016.9 1015.3 0.0
25/02:03pm 15.0 7.3 3.2 45 5.5 W 33 56 18 30 1017.3 1015.7 0.0
25/02:00pm 15.4 8.5 4.5 48 5.2 WNW 30 46 16 25 1017.5 1015.9 0.0
25/01:30pm 15.4 8.9 4.8 49 5.1 W 28 50 15 27 1017.9 1016.3 0.0
25/01:09pm 13.7 5.9 4.8 55 4.2 W 35 54 19 29 1018.4 1016.8 0.0
25/01:00pm 14.2 5.6 4.5 52 4.6 W 39 54 21 29 1018.2 1016.6 0.0
25/12:50pm 14.7 6.4 4.1 49 5.0 W 37 57 20 31 1017.9 1016.3 0.0
25/12:30pm 14.6 7.2 4.9 52 4.7 W 33 46 18 25 1018.3 1016.7 0.0

Other Formats:

Comma delimited format used in spreadsheet applications
http://www.bom.gov.au/fwo/IDS60801/IDS60801.94678.axf

JavaScript Object Notation format (JSON) in row-major order
http://www.bom.gov.au/fwo/IDS60801/IDS60801.94678.json